Chestnut, Louisiana
Current Conditions -  °F | °C
As of 4:15 PM on Saturday 25 Oct 2014 (Local Time) from KIER Reporting Station
Clear Clear  
Wind Chill: 85°   Ceiling: Unl
Heat Index: 85°   Visibility: 10mi
Dew Point: 57°   Wind: 5mph
Humidity: 39%   Direction: 290°WNW
Pressure: 30.09"   Gusts: NA
Location:  32.1401°N, 92.9428°W
Report Text: KIER 252115Z AUTO 29004KT 10SM CLR 29/14 A3009 RMK AO2 T02920139
Loading
Personal Weather Stations






























Interactive Weather Map
Tropical Storm Tracking
New forecast layout! Learn more

10-Day Weather Forecast

Advertisements
Track Severe Weather on mobile